sensor_id;sensor_type;location;lat;lon;timestamp;pressure;altitude;pressure_sealevel;temperature;humidity
63281;BME280;49406;51.044;3.766;2023-04-26T00:00:49;102068.39;;;2.47;100.00
63281;BME280;49406;51.044;3.766;2023-04-26T00:03:25;102072.18;;;2.40;100.00
63281;BME280;49406;51.044;3.766;2023-04-26T00:06:00;102073.52;;;2.34;100.00
63281;BME280;49406;51.044;3.766;2023-04-26T00:08:37;102076.84;;;2.26;100.00
63281;BME280;49406;51.044;3.766;2023-04-26T00:11:12;102076.98;;;2.18;100.00
63281;BME280;49406;51.044;3.766;2023-04-26T00:13:46;102078.60;;;2.10;100.00
63281;BME280;49406;51.044;3.766;2023-04-26T00:16:21;102078.67;;;2.03;100.00
63281;BME280;49406;51.044;3.766;2023-04-26T00:18:55;102077.30;;;1.97;100.00
63281;BME280;49406;51.044;3.766;2023-04-26T00:21:30;102078.31;;;1.92;100.00
63281;BME280;49406;51.044;3.766;2023-04-26T00:24:05;102079.41;;;1.85;100.00
63281;BME280;49406;51.044;3.766;2023-04-26T00:26:39;102081.10;;;1.87;100.00
63281;BME280;49406;51.044;3.766;2023-04-26T00:29:14;102080.20;;;2.02;100.00
63281;BME280;49406;51.044;3.766;2023-04-26T00:31:48;102077.93;;;2.07;100.00
63281;BME280;49406;51.044;3.766;2023-04-26T00:34:23;102079.45;;;2.10;100.00
63281;BME280;49406;51.044;3.766;2023-04-26T00:36:57;102080.67;;;2.10;100.00
63281;BME280;49406;51.044;3.766;2023-04-26T00:39:32;102078.66;;;2.08;100.00
63281;BME280;49406;51.044;3.766;2023-04-26T00:42:07;102077.36;;;2.09;100.00
63281;BME280;49406;51.044;3.766;2023-04-26T00:44:41;102078.26;;;2.07;100.00
63281;BME280;49406;51.044;3.766;2023-04-26T00:47:16;102074.93;;;2.01;100.00
63281;BME280;49406;51.044;3.766;2023-04-26T00:49:50;102073.30;;;1.97;100.00
63281;BME280;49406;51.044;3.766;2023-04-26T00:52:26;102077.14;;;1.92;100.00
63281;BME280;49406;51.044;3.766;2023-04-26T00:55:01;102078.11;;;1.86;100.00
63281;BME280;49406;51.044;3.766;2023-04-26T00:57:35;102074.58;;;1.84;100.00
63281;BME280;49406;51.044;3.766;2023-04-26T01:00:11;102078.88;;;1.95;100.00
63281;BME280;49406;51.044;3.766;2023-04-26T01:02:45;102073.77;;;1.93;100.00
63281;BME280;49406;51.044;3.766;2023-04-26T01:05:20;102076.27;;;1.89;100.00
63281;BME280;49406;51.044;3.766;2023-04-26T01:07:55;102074.80;;;1.90;100.00
63281;BME280;49406;51.044;3.766;2023-04-26T01:10:31;102075.83;;;1.91;100.00
63281;BME280;49406;51.044;3.766;2023-04-26T01:13:06;102069.35;;;1.83;100.00
63281;BME280;49406;51.044;3.766;2023-04-26T01:15:43;102072.58;;;1.77;100.00
63281;BME280;49406;51.044;3.766;2023-04-26T01:18:18;102069.64;;;1.72;100.00
63281;BME280;49406;51.044;3.766;2023-04-26T01:20:53;102071.06;;;1.65;100.00
63281;BME280;49406;51.044;3.766;2023-04-26T01:23:28;102071.84;;;1.66;100.00
63281;BME280;49406;51.044;3.766;2023-04-26T01:26:03;102071.85;;;1.71;100.00
63281;BME280;49406;51.044;3.766;2023-04-26T01:28:37;102072.61;;;1.70;100.00
63281;BME280;49406;51.044;3.766;2023-04-26T01:31:12;102072.23;;;1.64;100.00
63281;BME280;49406;51.044;3.766;2023-04-26T01:33:46;102071.14;;;1.60;100.00
63281;BME280;49406;51.044;3.766;2023-04-26T01:36:21;102067.18;;;1.55;100.00
63281;BME280;49406;51.044;3.766;2023-04-26T01:38:55;102063.63;;;1.48;100.00
63281;BME280;49406;51.044;3.766;2023-04-26T01:41:29;102063.40;;;1.41;100.00
63281;BME280;49406;51.044;3.766;2023-04-26T01:44:05;102062.31;;;1.35;100.00
63281;BME280;49406;51.044;3.766;2023-04-26T01:46:40;102061.05;;;1.37;100.00
63281;BME280;49406;51.044;3.766;2023-04-26T01:49:14;102061.08;;;1.43;100.00
63281;BME280;49406;51.044;3.766;2023-04-26T01:51:49;102061.46;;;1.38;100.00
63281;BME280;49406;51.044;3.766;2023-04-26T01:54:23;102058.30;;;1.32;100.00
63281;BME280;49406;51.044;3.766;2023-04-26T01:56:57;102054.86;;;1.30;100.00
63281;BME280;49406;51.044;3.766;2023-04-26T01:59:32;102050.65;;;1.23;100.00
63281;BME280;49406;51.044;3.766;2023-04-26T02:02:06;102048.65;;;1.16;100.00
63281;BME280;49406;51.044;3.766;2023-04-26T02:04:41;102042.70;;;1.12;100.00
63281;BME280;49406;51.044;3.766;2023-04-26T02:07:15;102040.77;;;1.09;100.00
63281;BME280;49406;51.044;3.766;2023-04-26T02:09:50;102040.70;;;1.05;100.00
63281;BME280;49406;51.044;3.766;2023-04-26T02:12:24;102040.08;;;1.04;100.00
63281;BME280;49406;51.044;3.766;2023-04-26T02:14:58;102037.08;;;1.10;100.00
63281;BME280;49406;51.044;3.766;2023-04-26T02:17:33;102035.90;;;1.21;100.00
63281;BME280;49406;51.044;3.766;2023-04-26T02:20:11;102036.75;;;1.27;100.00
63281;BME280;49406;51.044;3.766;2023-04-26T02:22:45;102035.73;;;1.32;100.00
63281;BME280;49406;51.044;3.766;2023-04-26T02:25:20;102038.53;;;1.35;100.00
63281;BME280;49406;51.044;3.766;2023-04-26T02:27:54;102033.76;;;1.36;100.00
63281;BME280;49406;51.044;3.766;2023-04-26T02:30:29;102033.85;;;1.32;100.00
63281;BME280;49406;51.044;3.766;2023-04-26T02:33:04;102036.75;;;1.32;100.00
63281;BME280;49406;51.044;3.766;2023-04-26T02:35:39;102037.42;;;1.32;100.00
63281;BME280;49406;51.044;3.766;2023-04-26T02:38:13;102034.99;;;1.29;100.00
63281;BME280;49406;51.044;3.766;2023-04-26T02:40:48;102039.27;;;1.26;100.00
63281;BME280;49406;51.044;3.766;2023-04-26T02:43:25;102037.06;;;1.26;100.00
63281;BME280;49406;51.044;3.766;2023-04-26T02:46:00;102037.98;;;1.37;100.00
63281;BME280;49406;51.044;3.766;2023-04-26T02:48:34;102041.67;;;1.41;100.00
63281;BME280;49406;51.044;3.766;2023-04-26T02:51:08;102033.97;;;1.45;100.00
63281;BME280;49406;51.044;3.766;2023-04-26T02:53:41;102035.65;;;1.47;100.00
63281;BME280;49406;51.044;3.766;2023-04-26T02:56:16;102030.84;;;1.47;100.00
63281;BME280;49406;51.044;3.766;2023-04-26T02:58:51;102029.54;;;1.43;100.00
63281;BME280;49406;51.044;3.766;2023-04-26T03:01:25;102032.98;;;1.37;100.00
63281;BME280;49406;51.044;3.766;2023-04-26T03:04:00;102029.80;;;1.34;100.00
63281;BME280;49406;51.044;3.766;2023-04-26T03:06:34;102033.83;;;1.32;100.00
63281;BME280;49406;51.044;3.766;2023-04-26T03:09:09;102036.02;;;1.29;100.00
63281;BME280;49406;51.044;3.766;2023-04-26T03:11:43;102033.35;;;1.25;100.00
63281;BME280;49406;51.044;3.766;2023-04-26T03:14:17;102033.70;;;1.22;100.00
63281;BME280;49406;51.044;3.766;2023-04-26T03:16:52;102036.62;;;1.33;100.00
63281;BME280;49406;51.044;3.766;2023-04-26T03:19:27;102032.50;;;1.35;100.00
63281;BME280;49406;51.044;3.766;2023-04-26T03:22:01;102032.27;;;1.37;100.00
63281;BME280;49406;51.044;3.766;2023-04-26T03:24:35;102029.27;;;1.39;100.00
63281;BME280;49406;51.044;3.766;2023-04-26T03:27:10;102030.44;;;1.41;100.00
63281;BME280;49406;51.044;3.766;2023-04-26T03:29:44;102020.19;;;1.39;100.00
63281;BME280;49406;51.044;3.766;2023-04-26T03:32:19;102008.19;;;1.35;100.00
63281;BME280;49406;51.044;3.766;2023-04-26T03:34:53;102006.60;;;1.34;100.00
63281;BME280;49406;51.044;3.766;2023-04-26T03:37:28;102004.54;;;1.35;100.00
63281;BME280;49406;51.044;3.766;2023-04-26T03:40:02;102008.88;;;1.43;100.00
63281;BME280;49406;51.044;3.766;2023-04-26T03:42:40;102008.59;;;1.50;100.00
63281;BME280;49406;51.044;3.766;2023-04-26T03:45:14;102009.47;;;1.50;100.00
63281;BME280;49406;51.044;3.766;2023-04-26T03:47:49;102013.78;;;1.53;100.00
63281;BME280;49406;51.044;3.766;2023-04-26T03:50:23;102014.30;;;1.50;100.00
63281;BME280;49406;51.044;3.766;2023-04-26T03:52:58;102015.33;;;1.47;100.00
63281;BME280;49406;51.044;3.766;2023-04-26T03:55:32;102009.80;;;1.47;100.00
63281;BME280;49406;51.044;3.766;2023-04-26T03:58:07;102005.08;;;1.46;100.00
63281;BME280;49406;51.044;3.766;2023-04-26T04:00:41;102006.19;;;1.44;100.00
63281;BME280;49406;51.044;3.766;2023-04-26T04:03:16;102006.60;;;1.42;100.00
63281;BME280;49406;51.044;3.766;2023-04-26T04:05:51;102012.09;;;1.45;100.00
63281;BME280;49406;51.044;3.766;2023-04-26T04:08:25;102014.25;;;1.57;100.00
63281;BME280;49406;51.044;3.766;2023-04-26T04:10:59;102011.61;;;1.62;100.00
63281;BME280;49406;51.044;3.766;2023-04-26T04:13:34;102007.70;;;1.66;100.00
63281;BME280;49406;51.044;3.766;2023-04-26T04:16:09;102006.60;;;1.70;100.00
63281;BME280;49406;51.044;3.766;2023-04-26T04:18:43;102005.07;;;1.73;100.00
63281;BME280;49406;51.044;3.766;2023-04-26T04:21:18;101999.91;;;1.71;100.00
63281;BME280;49406;51.044;3.766;2023-04-26T04:23:52;101997.15;;;1.73;100.00
63281;BME280;49406;51.044;3.766;2023-04-26T04:26:27;101996.38;;;1.75;100.00
63281;BME280;49406;51.044;3.766;2023-04-26T04:29:02;101996.69;;;1.74;100.00
63281;BME280;49406;51.044;3.766;2023-04-26T04:31:39;101997.12;;;1.70;100.00
63281;BME280;49406;51.044;3.766;2023-04-26T04:34:14;101996.69;;;1.66;100.00
63281;BME280;49406;51.044;3.766;2023-04-26T04:36:49;101999.45;;;1.66;100.00
63281;BME280;49406;51.044;3.766;2023-04-26T04:39:23;102002.06;;;1.77;100.00
63281;BME280;49406;51.044;3.766;2023-04-26T04:41:58;102006.58;;;1.81;100.00
63281;BME280;49406;51.044;3.766;2023-04-26T04:44:32;102009.99;;;1.86;100.00
63281;BME280;49406;51.044;3.766;2023-04-26T04:47:07;102010.55;;;1.92;100.00
63281;BME280;49406;51.044;3.766;2023-04-26T04:49:40;102005.77;;;2.01;100.00
63281;BME280;49406;51.044;3.766;2023-04-26T04:52:15;102007.37;;;2.02;100.00
63281;BME280;49406;51.044;3.766;2023-04-26T04:54:49;102013.27;;;2.00;100.00
63281;BME280;49406;51.044;3.766;2023-04-26T04:57:24;102011.27;;;1.98;100.00
63281;BME280;49406;51.044;3.766;2023-04-26T04:59:58;102012.17;;;1.99;100.00
63281;BME280;49406;51.044;3.766;2023-04-26T05:02:40;102017.78;;;2.00;100.00
63281;BME280;49406;51.044;3.766;2023-04-26T05:05:15;102019.11;;;2.04;100.00
63281;BME280;49406;51.044;3.766;2023-04-26T05:07:49;102021.81;;;2.15;100.00
63281;BME280;49406;51.044;3.766;2023-04-26T05:10:23;102027.69;;;2.38;100.00
63281;BME280;49406;51.044;3.766;2023-04-26T05:12:58;102025.79;;;2.52;100.00
63281;BME280;49406;51.044;3.766;2023-04-26T05:15:33;102030.39;;;2.66;100.00
63281;BME280;49406;51.044;3.766;2023-04-26T05:18:07;102030.60;;;2.84;100.00
63281;BME280;49406;51.044;3.766;2023-04-26T05:20:42;102031.36;;;3.00;100.00
63281;BME280;49406;51.044;3.766;2023-04-26T05:23:16;102037.67;;;3.14;100.00
63281;BME280;49406;51.044;3.766;2023-04-26T05:25:50;102043.63;;;3.30;100.00
63281;BME280;49406;51.044;3.766;2023-04-26T05:28:25;102046.60;;;3.43;100.00
63281;BME280;49406;51.044;3.766;2023-04-26T05:30:59;102046.30;;;3.60;100.00
63281;BME280;49406;51.044;3.766;2023-04-26T05:33:34;102053.29;;;3.76;100.00
63281;BME280;49406;51.044;3.766;2023-04-26T05:36:09;102054.91;;;3.87;100.00
63281;BME280;49406;51.044;3.766;2023-04-26T05:38:44;102053.59;;;3.98;100.00
63281;BME280;49406;51.044;3.766;2023-04-26T05:41:18;102052.55;;;4.17;100.00
63281;BME280;49406;51.044;3.766;2023-04-26T05:43:53;102056.23;;;4.44;100.00
63281;BME280;49406;51.044;3.766;2023-04-26T05:46:27;102058.29;;;4.70;100.00
63281;BME280;49406;51.044;3.766;2023-04-26T05:49:02;102058.69;;;4.95;100.00
63281;BME280;49406;51.044;3.766;2023-04-26T05:51:36;102062.73;;;5.20;100.00
63281;BME280;49406;51.044;3.766;2023-04-26T05:54:10;102071.86;;;5.51;100.00
63281;BME280;49406;51.044;3.766;2023-04-26T05:56:45;102068.38;;;5.73;100.00
63281;BME280;49406;51.044;3.766;2023-04-26T05:59:19;102065.86;;;5.89;100.00
63281;BME280;49406;51.044;3.766;2023-04-26T06:01:54;102064.98;;;6.03;100.00
63281;BME280;49406;51.044;3.766;2023-04-26T06:04:28;102059.69;;;6.13;100.00
63281;BME280;49406;51.044;3.766;2023-04-26T06:07:03;102062.84;;;6.17;100.00
63281;BME280;49406;51.044;3.766;2023-04-26T06:09:37;102061.16;;;6.15;100.00
63281;BME280;49406;51.044;3.766;2023-04-26T06:12:11;102063.70;;;6.13;100.00
63281;BME280;49406;51.044;3.766;2023-04-26T06:14:46;102062.75;;;6.07;100.00
63281;BME280;49406;51.044;3.766;2023-04-26T06:17:20;102055.92;;;6.03;100.00
63281;BME280;49406;51.044;3.766;2023-04-26T06:19:55;102053.13;;;5.98;100.00
63281;BME280;49406;51.044;3.766;2023-04-26T06:22:29;102058.31;;;6.02;100.00
63281;BME280;49406;51.044;3.766;2023-04-26T06:25:05;102053.73;;;6.08;100.00
63281;BME280;49406;51.044;3.766;2023-04-26T06:27:40;102055.75;;;6.10;100.00
63281;BME280;49406;51.044;3.766;2023-04-26T06:30:15;102058.27;;;6.16;100.00
63281;BME280;49406;51.044;3.766;2023-04-26T06:32:49;102067.55;;;6.21;100.00
63281;BME280;49406;51.044;3.766;2023-04-26T06:35:24;102068.93;;;6.33;100.00
63281;BME280;49406;51.044;3.766;2023-04-26T06:37:58;102070.66;;;6.56;100.00
63281;BME280;49406;51.044;3.766;2023-04-26T06:40:33;102065.47;;;6.88;100.00
63281;BME280;49406;51.044;3.766;2023-04-26T06:43:08;102062.88;;;7.26;100.00
63281;BME280;49406;51.044;3.766;2023-04-26T06:45:43;102063.83;;;7.49;100.00
63281;BME280;49406;51.044;3.766;2023-04-26T06:48:18;102070.54;;;7.65;100.00
63281;BME280;49406;51.044;3.766;2023-04-26T06:50:53;102072.63;;;7.70;100.00
63281;BME280;49406;51.044;3.766;2023-04-26T06:53:28;102078.28;;;7.67;100.00
63281;BME280;49406;51.044;3.766;2023-04-26T06:56:02;102077.09;;;7.68;100.00
63281;BME280;49406;51.044;3.766;2023-04-26T06:58:37;102081.02;;;7.71;100.00
63281;BME280;49406;51.044;3.766;2023-04-26T07:01:11;102076.52;;;7.75;100.00
63281;BME280;49406;51.044;3.766;2023-04-26T07:03:46;102077.50;;;7.82;100.00
63281;BME280;49406;51.044;3.766;2023-04-26T07:06:20;102082.87;;;7.86;100.00
63281;BME280;49406;51.044;3.766;2023-04-26T07:08:55;102079.41;;;8.00;100.00
63281;BME280;49406;51.044;3.766;2023-04-26T07:11:31;102085.38;;;8.25;100.00
63281;BME280;49406;51.044;3.766;2023-04-26T07:14:05;102080.41;;;8.40;99.41
63281;BME280;49406;51.044;3.766;2023-04-26T07:16:40;102082.04;;;8.51;98.26
63281;BME280;49406;51.044;3.766;2023-04-26T07:19:15;102077.42;;;8.63;98.30
63281;BME280;49406;51.044;3.766;2023-04-26T07:21:49;102082.16;;;8.79;97.66
63281;BME280;49406;51.044;3.766;2023-04-26T07:24:24;102087.39;;;8.89;94.30
63281;BME280;49406;51.044;3.766;2023-04-26T07:26:58;102091.94;;;8.94;94.21
63281;BME280;49406;51.044;3.766;2023-04-26T07:29:33;102090.90;;;9.04;93.55
63281;BME280;49406;51.044;3.766;2023-04-26T07:32:07;102088.76;;;9.18;93.21
63281;BME280;49406;51.044;3.766;2023-04-26T07:34:42;102087.65;;;9.38;93.01
63281;BME280;49406;51.044;3.766;2023-04-26T07:37:16;102081.86;;;9.58;92.33
63281;BME280;49406;51.044;3.766;2023-04-26T07:39:50;102082.95;;;9.82;90.23
63281;BME280;49406;51.044;3.766;2023-04-26T07:42:25;102086.11;;;9.99;87.83
63281;BME280;49406;51.044;3.766;2023-04-26T07:44:59;102078.90;;;10.21;86.31
63281;BME280;49406;51.044;3.766;2023-04-26T07:47:33;102083.14;;;10.39;85.62
63281;BME280;49406;51.044;3.766;2023-04-26T07:50:10;102079.11;;;10.57;85.53
63281;BME280;49406;51.044;3.766;2023-04-26T07:52:45;102074.10;;;10.73;83.12
63281;BME280;49406;51.044;3.766;2023-04-26T07:55:19;102069.45;;;10.89;78.47
63281;BME280;49406;51.044;3.766;2023-04-26T07:57:54;102070.45;;;10.93;75.11
63281;BME280;49406;51.044;3.766;2023-04-26T08:00:28;102068.04;;;11.01;74.61
63281;BME280;49406;51.044;3.766;2023-04-26T08:03:02;102066.98;;;11.14;74.43
63281;BME280;49406;51.044;3.766;2023-04-26T08:05:37;102062.95;;;11.57;76.81
63281;BME280;49406;51.044;3.766;2023-04-26T08:08:11;102061.92;;;12.20;73.51
63281;BME280;49406;51.044;3.766;2023-04-26T08:10:46;102070.58;;;12.58;71.57
63281;BME280;49406;51.044;3.766;2023-04-26T08:13:20;102074.02;;;12.80;66.03
63281;BME280;49406;51.044;3.766;2023-04-26T08:15:55;102071.99;;;12.67;66.23
63281;BME280;49406;51.044;3.766;2023-04-26T08:18:29;102075.29;;;12.47;61.62
63281;BME280;49406;51.044;3.766;2023-04-26T08:21:04;102069.79;;;12.36;63.01
63281;BME280;49406;51.044;3.766;2023-04-26T08:23:38;102071.79;;;12.48;63.78
63281;BME280;49406;51.044;3.766;2023-04-26T08:26:12;102063.14;;;12.63;64.57
63281;BME280;49406;51.044;3.766;2023-04-26T08:28:47;102067.60;;;12.76;61.69
63281;BME280;49406;51.044;3.766;2023-04-26T08:31:21;102065.35;;;12.78;62.53
63281;BME280;49406;51.044;3.766;2023-04-26T08:33:56;102064.65;;;12.97;60.81
63281;BME280;49406;51.044;3.766;2023-04-26T08:36:30;102064.14;;;13.09;59.14
63281;BME280;49406;51.044;3.766;2023-04-26T08:39:05;102061.44;;;13.05;57.59
63281;BME280;49406;51.044;3.766;2023-04-26T08:41:43;102059.59;;;13.28;58.53
63281;BME280;49406;51.044;3.766;2023-04-26T08:44:22;102061.79;;;13.33;56.89
63281;BME280;49406;51.044;3.766;2023-04-26T08:47:02;102065.31;;;13.34;55.81
63281;BME280;49406;51.044;3.766;2023-04-26T08:49:41;102069.98;;;13.41;56.20
63281;BME280;49406;51.044;3.766;2023-04-26T08:52:16;102067.80;;;13.45;54.80
63281;BME280;49406;51.044;3.766;2023-04-26T08:54:57;102067.91;;;13.43;55.03
63281;BME280;49406;51.044;3.766;2023-04-26T08:57:32;102063.83;;;13.75;56.61
63281;BME280;49406;51.044;3.766;2023-04-26T09:00:08;102061.02;;;13.99;54.38
63281;BME280;49406;51.044;3.766;2023-04-26T09:02:47;102063.56;;;14.05;55.46
63281;BME280;49406;51.044;3.766;2023-04-26T09:05:22;102064.21;;;14.28;53.95
63281;BME280;49406;51.044;3.766;2023-04-26T09:08:00;102065.50;;;14.20;50.02
63281;BME280;49406;51.044;3.766;2023-04-26T09:10:35;102061.27;;;13.92;50.71
63281;BME280;49406;51.044;3.766;2023-04-26T09:13:10;102060.71;;;13.90;51.89
63281;BME280;49406;51.044;3.766;2023-04-26T09:15:44;102057.80;;;13.71;50.79
63281;BME280;49406;51.044;3.766;2023-04-26T09:18:22;102057.83;;;13.61;51.33
63281;BME280;49406;51.044;3.766;2023-04-26T09:21:07;102057.48;;;13.49;51.73
63281;BME280;49406;51.044;3.766;2023-04-26T09:23:58;102058.77;;;13.42;49.80
63281;BME280;49406;51.044;3.766;2023-04-26T09:26:36;102059.31;;;13.44;51.68
63281;BME280;49406;51.044;3.766;2023-04-26T09:29:15;102059.94;;;13.72;51.70
63281;BME280;49406;51.044;3.766;2023-04-26T09:31:50;102055.34;;;13.96;52.00
63281;BME280;49406;51.044;3.766;2023-04-26T09:34:24;102057.66;;;14.11;51.09
63281;BME280;49406;51.044;3.766;2023-04-26T09:36:59;102056.86;;;14.04;49.85
63281;BME280;49406;51.044;3.766;2023-04-26T09:39:35;102058.02;;;14.13;50.16
63281;BME280;49406;51.044;3.766;2023-04-26T09:42:10;102057.77;;;14.06;47.95
63281;BME280;49406;51.044;3.766;2023-04-26T09:44:45;102055.38;;;13.74;48.19
63281;BME280;49406;51.044;3.766;2023-04-26T09:47:22;102056.33;;;13.32;48.93
63281;BME280;49406;51.044;3.766;2023-04-26T09:49:55;102052.52;;;13.35;49.43
63281;BME280;49406;51.044;3.766;2023-04-26T09:52:29;102055.78;;;13.65;49.91
63281;BME280;49406;51.044;3.766;2023-04-26T09:55:04;102055.67;;;13.94;49.09
63281;BME280;49406;51.044;3.766;2023-04-26T09:57:44;102058.10;;;14.33;46.74
63281;BME280;49406;51.044;3.766;2023-04-26T10:00:19;102051.46;;;14.64;46.16
63281;BME280;49406;51.044;3.766;2023-04-26T10:02:55;102047.65;;;14.88;45.34
63281;BME280;49406;51.044;3.766;2023-04-26T10:05:30;102049.55;;;15.02;44.26
63281;BME280;49406;51.044;3.766;2023-04-26T10:08:06;102043.73;;;15.21;45.36
63281;BME280;49406;51.044;3.766;2023-04-26T10:10:41;102041.88;;;15.34;42.74
63281;BME280;49406;51.044;3.766;2023-04-26T10:13:16;102039.01;;;15.05;42.32
63281;BME280;49406;51.044;3.766;2023-04-26T10:15:52;102036.14;;;14.80;41.98
63281;BME280;49406;51.044;3.766;2023-04-26T10:18:28;102031.89;;;14.79;43.54
63281;BME280;49406;51.044;3.766;2023-04-26T10:21:07;102027.88;;;15.00;42.48
63281;BME280;49406;51.044;3.766;2023-04-26T10:23:44;102032.86;;;14.88;42.08
63281;BME280;49406;51.044;3.766;2023-04-26T10:26:49;102033.08;;;14.92;42.18
63281;BME280;49406;51.044;3.766;2023-04-26T10:29:30;102028.87;;;14.94;43.38
63281;BME280;49406;51.044;3.766;2023-04-26T10:32:20;102027.20;;;15.06;41.42
63281;BME280;49406;51.044;3.766;2023-04-26T10:35:11;102026.60;;;15.17;42.76
63281;BME280;49406;51.044;3.766;2023-04-26T10:38:10;102027.96;;;15.32;41.13
63281;BME280;49406;51.044;3.766;2023-04-26T10:40:44;102026.80;;;15.19;41.92
63281;BME280;49406;51.044;3.766;2023-04-26T10:43:31;102020.02;;;15.30;40.63
63281;BME280;49406;51.044;3.766;2023-04-26T10:46:34;102015.73;;;15.02;37.50
63281;BME280;49406;51.044;3.766;2023-04-26T10:49:14;102015.53;;;14.62;35.83
63281;BME280;49406;51.044;3.766;2023-04-26T10:52:09;102012.45;;;14.53;37.56
63281;BME280;49406;51.044;3.766;2023-04-26T10:54:55;102009.83;;;14.56;38.65
63281;BME280;49406;51.044;3.766;2023-04-26T10:57:47;102007.84;;;14.66;39.31
63281;BME280;49406;51.044;3.766;2023-04-26T11:00:30;102002.77;;;14.71;39.02
63281;BME280;49406;51.044;3.766;2023-04-26T11:03:06;102001.06;;;14.44;36.82
63281;BME280;49406;51.044;3.766;2023-04-26T11:05:54;101998.54;;;14.40;37.04
63281;BME280;49406;51.044;3.766;2023-04-26T11:08:30;101991.35;;;14.56;37.15
63281;BME280;49406;51.044;3.766;2023-04-26T11:11:09;101988.33;;;15.12;38.18
63281;BME280;49406;51.044;3.766;2023-04-26T11:13:44;101992.52;;;15.83;37.94
63281;BME280;49406;51.044;3.766;2023-04-26T11:16:19;101991.48;;;15.88;36.55
63281;BME280;49406;51.044;3.766;2023-04-26T11:18:54;101990.06;;;15.54;36.32
63281;BME280;49406;51.044;3.766;2023-04-26T11:21:29;101997.01;;;15.42;37.31
63281;BME280;49406;51.044;3.766;2023-04-26T11:24:05;101993.52;;;15.72;37.32
63281;BME280;49406;51.044;3.766;2023-04-26T11:26:39;101991.89;;;15.63;36.30
63281;BME280;49406;51.044;3.766;2023-04-26T11:29:20;101988.11;;;15.82;37.47
63281;BME280;49406;51.044;3.766;2023-04-26T11:31:55;101989.10;;;16.11;35.88
63281;BME280;49406;51.044;3.766;2023-04-26T11:34:33;101984.23;;;16.31;36.87
63281;BME280;49406;51.044;3.766;2023-04-26T11:37:08;101984.33;;;16.71;36.80
63281;BME280;49406;51.044;3.766;2023-04-26T11:39:45;101983.53;;;16.35;34.41
63281;BME280;49406;51.044;3.766;2023-04-26T11:42:24;101987.39;;;15.27;34.81
63281;BME280;49406;51.044;3.766;2023-04-26T11:44:59;101981.17;;;14.59;36.67
63281;BME280;49406;51.044;3.766;2023-04-26T11:47:34;101976.23;;;14.56;37.83
63281;BME280;49406;51.044;3.766;2023-04-26T11:50:09;101977.95;;;14.91;38.44
63281;BME280;49406;51.044;3.766;2023-04-26T11:52:42;101978.52;;;15.19;38.33
63281;BME280;49406;51.044;3.766;2023-04-26T11:55:18;101980.40;;;15.34;37.91
63281;BME280;49406;51.044;3.766;2023-04-26T11:57:56;101978.64;;;15.36;37.25
63281;BME280;49406;51.044;3.766;2023-04-26T12:00:31;101977.86;;;15.52;37.42
63281;BME280;49406;51.044;3.766;2023-04-26T12:03:07;101979.27;;;15.80;37.32
63281;BME280;49406;51.044;3.766;2023-04-26T12:05:41;101981.77;;;15.87;36.92
63281;BME280;49406;51.044;3.766;2023-04-26T12:08:16;101980.02;;;15.86;36.33
63281;BME280;49406;51.044;3.766;2023-04-26T12:10:50;101983.70;;;15.83;35.16
63281;BME280;49406;51.044;3.766;2023-04-26T12:13:25;101981.50;;;15.66;35.32
63281;BME280;49406;51.044;3.766;2023-04-26T12:16:00;101977.40;;;15.34;36.31
63281;BME280;49406;51.044;3.766;2023-04-26T12:18:48;101978.45;;;15.10;37.16
63281;BME280;49406;51.044;3.766;2023-04-26T12:21:23;101981.93;;;15.27;37.45
63281;BME280;49406;51.044;3.766;2023-04-26T12:23:58;101985.30;;;15.55;37.72
63281;BME280;49406;51.044;3.766;2023-04-26T12:26:42;101983.48;;;15.74;35.83
63281;BME280;49406;51.044;3.766;2023-04-26T12:29:17;101977.25;;;16.00;36.19
63281;BME280;49406;51.044;3.766;2023-04-26T12:31:52;101982.06;;;16.14;35.06
63281;BME280;49406;51.044;3.766;2023-04-26T12:34:26;101979.91;;;16.04;34.32
63281;BME280;49406;51.044;3.766;2023-04-26T12:37:01;101978.90;;;16.17;34.94
63281;BME280;49406;51.044;3.766;2023-04-26T12:39:36;101979.20;;;16.69;35.24
63281;BME280;49406;51.044;3.766;2023-04-26T12:42:10;101980.10;;;16.73;34.51
63281;BME280;49406;51.044;3.766;2023-04-26T12:44:45;101979.16;;;16.53;34.54
63281;BME280;49406;51.044;3.766;2023-04-26T12:47:19;101979.86;;;16.56;34.53
63281;BME280;49406;51.044;3.766;2023-04-26T12:49:54;101976.23;;;16.78;33.99
63281;BME280;49406;51.044;3.766;2023-04-26T12:52:28;101976.76;;;17.10;34.62
63281;BME280;49406;51.044;3.766;2023-04-26T12:55:04;101973.92;;;17.01;34.57
63281;BME280;49406;51.044;3.766;2023-04-26T12:57:39;101976.23;;;16.97;34.71
63281;BME280;49406;51.044;3.766;2023-04-26T13:00:16;101971.45;;;16.74;33.87
63281;BME280;49406;51.044;3.766;2023-04-26T13:02:51;101973.58;;;16.89;34.78
63281;BME280;49406;51.044;3.766;2023-04-26T13:05:25;101976.05;;;17.13;34.64
63281;BME280;49406;51.044;3.766;2023-04-26T13:08:01;101972.51;;;17.05;33.61
63281;BME280;49406;51.044;3.766;2023-04-26T13:10:36;101970.20;;;16.69;33.08
63281;BME280;49406;51.044;3.766;2023-04-26T13:13:10;101963.59;;;16.34;33.14
63281;BME280;49406;51.044;3.766;2023-04-26T13:15:45;101962.46;;;16.09;34.62
63281;BME280;49406;51.044;3.766;2023-04-26T13:18:19;101961.26;;;16.19;35.12
63281;BME280;49406;51.044;3.766;2023-04-26T13:20:53;101955.61;;;16.28;35.64
63281;BME280;49406;51.044;3.766;2023-04-26T13:23:28;101955.77;;;16.17;35.77
63281;BME280;49406;51.044;3.766;2023-04-26T13:26:02;101952.22;;;16.08;36.88
63281;BME280;49406;51.044;3.766;2023-04-26T13:28:37;101956.08;;;16.00;36.85
63281;BME280;49406;51.044;3.766;2023-04-26T13:31:12;101957.52;;;15.65;36.86
63281;BME280;49406;51.044;3.766;2023-04-26T13:33:48;101957.55;;;15.43;37.70